Time;durP1;ratioP1;P1;durP2;ratioP2;P2;SDS_P1;SDS_P2;PMS_P1;PMS_P2;Temp;Humidity;BMP_temperature;BMP_pressure;BME280_temperature;BME280_humidity;BME280_pressure;Samples;Min_cycle;Max_cycle;Signal;HPM_P1;HPM_P2
2022/04/04 00:01:11;;;;;;;7.60;7.00;;;6.50;99.90;;;;;;5061323;28;20210;-73
2022/04/04 00:03:39;;;;;;;6.38;5.80;;;6.50;99.90;;;;;;5070991;28;20213;-72
2022/04/04 00:06:07;;;;;;;6.55;6.05;;;6.50;99.90;;;;;;5083172;28;20672;-74
2022/04/04 00:08:34;;;;;;;7.05;6.45;;;6.50;99.90;;;;;;5083799;28;20448;-73
2022/04/04 00:11:02;;;;;;;6.55;6.00;;;6.50;99.90;;;;;;5080013;28;20202;-74
2022/04/04 00:13:29;;;;;;;7.38;6.78;;;6.40;99.90;;;;;;5081954;28;20233;-73
2022/04/04 00:15:56;;;;;;;7.20;6.50;;;6.50;99.90;;;;;;5082954;28;20205;-74
2022/04/04 00:18:23;;;;;;;7.68;7.07;;;6.50;99.90;;;;;;5084464;28;20232;-75
2022/04/04 00:20:52;;;;;;;8.32;7.50;;;6.50;99.90;;;;;;5087568;28;20213;-73
2022/04/04 00:23:19;;;;;;;7.97;7.28;;;6.50;99.90;;;;;;5086869;28;20221;-73
2022/04/04 00:25:47;;;;;;;6.68;6.18;;;6.50;99.90;;;;;;5083011;28;20213;-73
2022/04/04 00:28:15;;;;;;;7.13;6.47;;;6.50;99.90;;;;;;5081681;28;20221;-73
2022/04/04 00:30:43;;;;;;;7.75;6.93;;;6.50;99.90;;;;;;5060342;28;20194;-73
2022/04/04 00:33:10;;;;;;;6.15;5.65;;;6.50;99.90;;;;;;5063195;28;20573;-75
2022/04/04 00:35:37;;;;;;;6.28;5.75;;;6.40;99.90;;;;;;5065345;28;20223;-74
2022/04/04 00:38:08;;;;;;;6.07;5.60;;;6.40;99.90;;;;;;5065241;28;20255;-76
2022/04/04 00:40:35;;;;;;;6.25;5.53;;;6.40;99.90;;;;;;5086003;28;20757;-77
2022/04/04 00:43:02;;;;;;;5.60;5.20;;;6.40;99.90;;;;;;5084066;28;20220;-74
2022/04/04 00:45:29;;;;;;;4.90;4.60;;;6.30;99.90;;;;;;5065465;28;20225;-73
2022/04/04 00:47:56;;;;;;;4.70;4.40;;;6.30;99.90;;;;;;5066667;28;20198;-72
2022/04/04 00:50:24;;;;;;;5.10;4.78;;;6.30;99.90;;;;;;5064845;28;20258;-73
2022/04/04 00:52:52;;;;;;;4.93;4.57;;;6.40;99.90;;;;;;5067238;28;20195;-73
2022/04/04 00:55:21;;;;;;;3.92;3.63;;;6.40;99.90;;;;;;5064651;28;20805;-76
2022/04/04 00:57:48;;;;;;;4.38;4.07;;;6.40;99.90;;;;;;5066622;28;20257;-73
2022/04/04 01:00:16;;;;;;;4.25;3.95;;;6.40;99.90;;;;;;5069334;28;20634;-74
2022/04/04 01:02:43;;;;;;;3.85;3.58;;;6.40;99.90;;;;;;5062886;28;20214;-72
2022/04/04 01:05:11;;;;;;;4.07;3.78;;;6.40;99.90;;;;;;5082845;28;20224;-74
2022/04/04 01:07:38;;;;;;;4.70;4.30;;;6.40;99.90;;;;;;5082280;28;20289;-73
2022/04/04 01:10:08;;;;;;;4.18;3.88;;;6.40;99.90;;;;;;5067337;28;20222;-72
2022/04/04 01:12:38;;;;;;;4.25;3.95;;;6.40;99.90;;;;;;5067046;28;20197;-73
2022/04/04 01:15:06;;;;;;;4.57;4.18;;;6.40;99.90;;;;;;5064887;28;20708;-72
2022/04/04 01:17:36;;;;;;;3.90;3.70;;;6.30;99.90;;;;;;5063825;28;20203;-73
2022/04/04 01:20:05;;;;;;;4.55;4.22;;;6.20;99.90;;;;;;5067467;28;20979;-74
2022/04/04 01:22:32;;;;;;;4.18;3.97;;;6.20;99.90;;;;;;5065753;28;20776;-74
2022/04/04 01:25:04;;;;;;;4.07;3.78;;;6.10;99.90;;;;;;5067737;28;20230;-73
2022/04/04 01:27:31;;;;;;;4.30;4.00;;;6.00;99.90;;;;;;5063671;28;20292;-72
2022/04/04 01:29:58;;;;;;;4.95;3.67;;;5.90;99.90;;;;;;5066292;28;20283;-73
2022/04/04 01:32:25;;;;;;;3.80;3.50;;;5.80;99.90;;;;;;5059599;28;20603;-74
2022/04/04 01:34:52;;;;;;;4.18;3.97;;;5.80;99.90;;;;;;5061142;28;20222;-75
2022/04/04 01:37:19;;;;;;;3.65;3.45;;;5.90;99.90;;;;;;5064006;28;20615;-74
2022/04/04 01:39:47;;;;;;;5.00;4.63;;;5.90;99.90;;;;;;5064833;28;20233;-74
2022/04/04 01:42:15;;;;;;;4.88;4.35;;;5.90;99.90;;;;;;5061744;28;20580;-74
2022/04/04 01:44:42;;;;;;;4.22;3.92;;;5.80;99.90;;;;;;5065766;28;20213;-73
2022/04/04 01:47:10;;;;;;;5.32;4.07;;;5.80;99.90;;;;;;5068937;28;20194;-79
2022/04/04 01:49:37;;;;;;;4.68;4.38;;;5.70;99.90;;;;;;5066116;28;20213;-73
2022/04/04 01:52:04;;;;;;;4.43;4.13;;;5.60;99.90;;;;;;5067017;28;20892;-72
2022/04/04 01:54:32;;;;;;;3.97;3.67;;;5.50;99.90;;;;;;5062561;28;20229;-73
2022/04/04 01:56:59;;;;;;;4.25;3.95;;;5.60;99.90;;;;;;5068353;28;20206;-73
2022/04/04 01:59:27;;;;;;;5.25;4.88;;;5.60;99.90;;;;;;5072160;28;20283;-73
2022/04/04 02:01:54;;;;;;;5.70;5.28;;;5.60;99.90;;;;;;5066103;28;20206;-73
2022/04/04 02:04:21;;;;;;;5.80;5.40;;;5.40;99.90;;;;;;5069650;28;20218;-72
2022/04/04 02:06:49;;;;;;;5.90;5.40;;;5.30;99.90;;;;;;5064724;28;20248;-74
2022/04/04 02:09:16;;;;;;;5.85;5.45;;;5.20;99.90;;;;;;5064027;28;20217;-73
2022/04/04 02:11:44;;;;;;;5.70;4.90;;;5.10;99.90;;;;;;5068744;28;20194;-75
2022/04/04 02:14:11;;;;;;;6.30;5.80;;;5.10;99.90;;;;;;5065565;28;20223;-74
2022/04/04 02:16:39;;;;;;;5.45;4.97;;;5.00;99.90;;;;;;5068483;28;20871;-76
2022/04/04 02:19:06;;;;;;;6.50;6.00;;;5.00;99.90;;;;;;5062237;28;20218;-76
2022/04/04 02:21:33;;;;;;;7.68;6.65;;;4.90;99.90;;;;;;5071163;28;20190;-75
2022/04/04 02:26:34;;;;;;;6.20;5.70;;;5.00;99.90;;;;;;5063502;28;20216;-79
2022/04/04 02:29:02;;;;;;;5.30;4.90;;;5.00;99.90;;;;;;5058947;28;20222;-77
2022/04/04 02:31:29;;;;;;;5.65;5.25;;;5.10;99.90;;;;;;5067526;28;20198;-79
2022/04/04 02:33:57;;;;;;;4.63;4.28;;;5.10;99.90;;;;;;5066466;28;20221;-79
2022/04/04 02:36:24;;;;;;;5.90;5.40;;;5.10;99.90;;;;;;5063601;28;20704;-78
2022/04/04 02:38:51;;;;;;;5.55;5.18;;;5.00;99.90;;;;;;5065036;28;20226;-79
2022/04/04 02:41:18;;;;;;;5.65;5.25;;;5.00;99.90;;;;;;5065574;28;20203;-79
2022/04/04 02:43:45;;;;;;;5.35;4.95;;;4.90;99.90;;;;;;5067317;28;20218;-79
2022/04/04 02:46:14;;;;;;;4.80;4.45;;;4.90;99.90;;;;;;5061596;28;20215;-79
2022/04/04 02:48:41;;;;;;;5.15;4.78;;;5.00;99.90;;;;;;5066188;28;20675;-80
2022/04/04 02:51:10;;;;;;;4.43;4.13;;;5.00;99.90;;;;;;5069514;28;20402;-79
2022/04/04 02:53:37;;;;;;;4.00;3.80;;;5.10;99.90;;;;;;5064631;28;20248;-79
2022/04/04 02:58:49;;;;;;;5.68;5.28;;;5.20;99.90;;;;;;5062471;28;20205;-79
2022/04/04 03:01:19;;;;;;;5.38;4.97;;;5.20;99.90;;;;;;5070734;28;20660;-79
2022/04/04 03:03:46;;;;;;;4.82;4.53;;;5.10;99.90;;;;;;5066190;28;20216;-79
2022/04/04 03:06:14;;;;;;;5.60;5.20;;;4.90;99.90;;;;;;5065980;28;20287;-79
2022/04/04 03:08:41;;;;;;;5.18;4.78;;;4.80;99.90;;;;;;5062141;28;20226;-79
2022/04/04 03:11:08;;;;;;;5.55;5.15;;;4.70;99.90;;;;;;5070439;28;20664;-77
2022/04/04 03:13:36;;;;;;;5.00;4.70;;;4.70;99.90;;;;;;5064759;28;20190;-79
2022/04/04 03:16:03;;;;;;;6.03;5.53;;;4.70;99.90;;;;;;5068147;28;20222;-79
2022/04/04 03:18:30;;;;;;;5.07;4.75;;;4.60;99.90;;;;;;5070938;28;20213;-78
2022/04/04 03:20:57;;;;;;;5.97;5.57;;;4.60;99.90;;;;;;5066825;28;20234;-78
2022/04/04 03:23:27;;;;;;;5.03;4.72;;;4.60;99.90;;;;;;5069013;28;20210;-79
2022/04/04 03:25:54;;;;;;;5.65;5.25;;;4.60;99.90;;;;;;5068367;28;20222;-78
2022/04/04 03:28:21;;;;;;;5.25;4.95;;;4.50;99.90;;;;;;5069707;28;20262;-79
2022/04/04 03:30:49;;;;;;;5.18;4.85;;;4.50;99.90;;;;;;5069104;28;20305;-79
2022/04/04 03:33:17;;;;;;;4.30;4.00;;;4.60;99.90;;;;;;5065990;28;20285;-78
2022/04/04 03:35:45;;;;;;;4.80;4.50;;;4.60;99.90;;;;;;5071193;28;20712;-79
2022/04/04 03:38:14;;;;;;;4.78;4.47;;;4.70;99.90;;;;;;5066293;28;20221;-79
2022/04/04 03:40:43;;;;;;;4.90;4.60;;;4.70;99.90;;;;;;5066033;28;20653;-79
2022/04/04 03:43:10;;;;;;;5.03;4.72;;;4.80;99.90;;;;;;5064824;28;20218;-79
2022/04/04 03:45:37;;;;;;;4.70;4.40;;;4.80;99.90;;;;;;5068030;28;20640;-79
2022/04/04 03:48:05;;;;;;;5.10;4.72;;;4.80;99.90;;;;;;5068330;28;20212;-79
2022/04/04 03:50:32;;;;;;;4.70;4.40;;;4.80;99.90;;;;;;5069578;28;20214;-79
2022/04/04 03:52:59;;;;;;;4.50;4.20;;;4.90;99.90;;;;;;5064247;28;20202;-78
2022/04/04 03:55:28;;;;;;;4.50;4.20;;;5.00;99.90;;;;;;5064755;28;20225;-79
2022/04/04 03:57:57;;;;;;;5.15;4.75;;;5.00;99.90;;;;;;5069583;28;20202;-80
2022/04/04 04:00:26;;;;;;;4.70;4.40;;;5.10;99.90;;;;;;5064615;28;20222;-79
2022/04/04 04:02:53;;;;;;;5.13;4.75;;;5.10;99.90;;;;;;5064692;28;20194;-80
2022/04/04 04:05:21;;;;;;;4.53;4.22;;;5.00;99.90;;;;;;5065704;28;20283;-79
2022/04/04 04:07:48;;;;;;;4.95;4.55;;;5.00;99.90;;;;;;5067379;28;20205;-79
2022/04/04 04:10:15;;;;;;;4.80;4.50;;;5.00;99.90;;;;;;5066418;28;20283;-79
2022/04/04 04:12:44;;;;;;;5.00;4.70;;;4.90;99.90;;;;;;5067514;28;20198;-80
2022/04/04 04:15:14;;;;;;;4.30;4.00;;;4.80;99.90;;;;;;5068868;28;20236;-78
2022/04/04 04:17:42;;;;;;;4.10;3.85;;;4.80;99.90;;;;;;5066603;28;20198;-79
2022/04/04 04:20:25;;;;;;;3.80;3.60;;;4.80;99.90;;;;;;5066541;28;20226;-79
2022/04/04 04:22:55;;;;;;;4.55;4.20;;;4.80;99.90;;;;;;5065780;28;20190;-79
2022/04/04 04:25:24;;;;;;;4.32;4.03;;;4.90;99.90;;;;;;5065178;28;20622;-79
2022/04/04 04:27:51;;;;;;;4.97;4.63;;;4.90;99.90;;;;;;5068554;28;20206;-79
2022/04/04 04:30:19;;;;;;;4.72;4.32;;;4.90;99.90;;;;;;5065101;28;20275;-80
2022/04/04 04:32:49;;;;;;;4.80;4.50;;;4.90;99.90;;;;;;5061775;28;20191;-80
2022/04/04 04:35:17;;;;;;;4.85;4.50;;;4.90;99.90;;;;;;5063207;28;20315;-79
2022/04/04 04:37:45;;;;;;;5.03;4.72;;;4.90;99.90;;;;;;5064770;28;20198;-80
2022/04/04 04:40:14;;;;;;;5.30;4.80;;;4.90;99.90;;;;;;5060923;28;20234;-77
2022/04/04 04:42:42;;;;;;;5.03;4.63;;;4.90;99.90;;;;;;5063400;28;20702;-79
2022/04/04 04:45:09;;;;;;;4.50;4.20;;;4.90;99.90;;;;;;5066463;28;20222;-79
2022/04/04 04:47:38;;;;;;;4.75;4.45;;;4.90;99.90;;;;;;5066958;28;20198;-79
2022/04/04 04:50:07;;;;;;;4.80;4.50;;;5.00;99.90;;;;;;5064015;28;20272;-79
2022/04/04 04:52:35;;;;;;;4.53;4.20;;;5.00;99.90;;;;;;5063580;28;20194;-79
2022/04/04 04:55:04;;;;;;;5.05;4.65;;;5.00;99.90;;;;;;5064430;28;20588;-78
2022/04/04 04:57:32;;;;;;;4.40;4.10;;;5.00;99.90;;;;;;5061599;28;20221;-78
2022/04/04 05:00:02;;;;;;;4.88;4.50;;;5.00;99.90;;;;;;5068898;28;20643;-79
2022/04/04 05:02:29;;;;;;;4.90;4.50;;;5.00;99.90;;;;;;5063958;28;20206;-79
2022/04/04 05:04:57;;;;;;;5.18;4.78;;;5.00;99.90;;;;;;5064688;28;20229;-79
2022/04/04 05:07:24;;;;;;;5.05;4.65;;;5.00;99.90;;;;;;5065332;28;20203;-78
2022/04/04 05:09:51;;;;;;;5.78;5.38;;;4.90;99.90;;;;;;5065341;28;20297;-79
2022/04/04 05:12:18;;;;;;;5.80;5.40;;;4.90;99.90;;;;;;5063781;28;20190;-80
2022/04/04 05:14:45;;;;;;;5.65;5.25;;;4.80;99.90;;;;;;5065640;28;20239;-79
2022/04/04 05:17:12;;;;;;;5.60;5.20;;;4.60;99.90;;;;;;5065774;28;20210;-79
2022/04/04 05:19:39;;;;;;;5.97;5.57;;;4.50;99.90;;;;;;5064648;28;20708;-79
2022/04/04 05:22:08;;;;;;;5.60;5.20;;;4.30;99.90;;;;;;5066145;28;20206;-79
2022/04/04 05:24:36;;;;;;;5.43;5.03;;;4.20;99.90;;;;;;5063761;28;20309;-80
2022/04/04 05:27:03;;;;;;;5.60;5.20;;;4.30;99.90;;;;;;5065749;28;20230;-79
2022/04/04 05:29:30;;;;;;;6.00;5.60;;;4.20;99.90;;;;;;5066560;28;20202;-80
2022/04/04 05:31:57;;;;;;;6.10;5.65;;;4.30;99.90;;;;;;5062429;28;20829;-80
2022/04/04 05:34:26;;;;;;;5.65;5.25;;;4.30;99.90;;;;;;5061562;28;20190;-80
2022/04/04 05:36:53;;;;;;;6.57;6.07;;;4.40;99.90;;;;;;5041029;28;20250;-79
2022/04/04 05:39:22;;;;;;;6.30;5.80;;;4.30;99.90;;;;;;5040987;28;20252;-79
2022/04/04 05:41:49;;;;;;;6.53;6.03;;;4.30;99.90;;;;;;5043017;28;20203;-80
2022/04/04 05:44:17;;;;;;;5.53;5.13;;;4.30;99.90;;;;;;5044668;28;20628;-79
2022/04/04 05:46:44;;;;;;;6.32;5.82;;;4.30;99.90;;;;;;5044254;28;20195;-80
2022/04/04 05:49:11;;;;;;;5.90;5.50;;;4.40;99.90;;;;;;5042167;28;20195;-79
2022/04/04 05:51:38;;;;;;;5.30;4.90;;;4.40;99.90;;;;;;5042967;28;20273;-80
2022/04/04 05:54:05;;;;;;;5.43;5.03;;;4.50;99.90;;;;;;5042797;28;20219;-80
2022/04/04 05:56:37;;;;;;;5.95;5.55;;;4.50;99.90;;;;;;5043219;28;20234;-79
2022/04/04 05:59:05;;;;;;;5.25;4.93;;;4.40;99.90;;;;;;5042195;28;20580;-80
2022/04/04 06:01:32;;;;;;;4.97;4.65;;;4.50;99.90;;;;;;5043273;28;20788;-79
2022/04/04 06:03:59;;;;;;;4.30;4.00;;;4.50;99.90;;;;;;5038807;28;20639;-80
2022/04/04 06:06:26;;;;;;;4.50;4.20;;;4.60;99.90;;;;;;5041896;28;20222;-79
2022/04/04 06:08:53;;;;;;;4.53;4.22;;;4.70;99.90;;;;;;5042464;28;20203;-79
2022/04/04 06:11:20;;;;;;;4.60;4.30;;;4.80;99.90;;;;;;5044238;28;20254;-79
2022/04/04 06:13:48;;;;;;;4.80;4.50;;;4.90;99.90;;;;;;5041361;28;20187;-78
2022/04/04 06:16:15;;;;;;;4.82;4.53;;;4.90;99.90;;;;;;5038700;28;20277;-80
2022/04/04 06:18:43;;;;;;;6.05;5.40;;;4.80;99.90;;;;;;5042630;28;20214;-80
2022/04/04 06:21:10;;;;;;;5.35;4.95;;;4.80;99.90;;;;;;5044861;28;20664;-80
2022/04/04 06:23:37;;;;;;;5.70;5.30;;;4.90;99.90;;;;;;5038561;28;20210;-80
2022/04/04 06:26:06;;;;;;;5.25;4.88;;;4.80;99.90;;;;;;5037543;28;20219;-80
2022/04/04 06:28:34;;;;;;;5.32;4.97;;;4.90;99.90;;;;;;5041068;28;20543;-79
2022/04/04 06:31:04;;;;;;;5.45;5.05;;;4.90;99.90;;;;;;5044766;28;20238;-78
2022/04/04 06:33:31;;;;;;;5.45;5.05;;;4.90;99.90;;;;;;5044284;28;20202;-80
2022/04/04 06:35:58;;;;;;;5.00;4.70;;;5.00;99.90;;;;;;5045329;28;20227;-79
2022/04/04 06:38:25;;;;;;;6.20;5.70;;;5.00;99.90;;;;;;5045376;28;20231;-79
2022/04/04 06:40:52;;;;;;;5.05;4.65;;;5.00;99.90;;;;;;5038867;28;20219;-80
2022/04/04 06:43:20;;;;;;;5.25;4.85;;;5.00;99.90;;;;;;5046259;28;20218;-80
2022/04/04 06:45:47;;;;;;;5.10;4.70;;;5.00;99.90;;;;;;5041158;28;20226;-80
2022/04/04 06:48:15;;;;;;;5.40;5.00;;;5.10;99.90;;;;;;5043174;28;20249;-77
2022/04/04 06:50:43;;;;;;;5.75;5.35;;;5.10;99.90;;;;;;5042449;28;20218;-79
2022/04/04 06:53:10;;;;;;;5.18;4.75;;;5.20;99.90;;;;;;5044939;28;20720;-79
2022/04/04 06:55:39;;;;;;;5.28;4.88;;;5.20;99.90;;;;;;5046162;28;20250;-79
2022/04/04 06:58:07;;;;;;;5.45;4.97;;;5.20;99.90;;;;;;5041387;28;20203;-80
2022/04/04 07:00:35;;;;;;;5.25;4.85;;;5.20;99.90;;;;;;5041955;28;20211;-80
2022/04/04 07:03:02;;;;;;;4.70;4.40;;;5.20;99.90;;;;;;5042498;28;20199;-79
2022/04/04 07:05:32;;;;;;;5.47;5.03;;;5.10;99.90;;;;;;5040017;28;20293;-79
2022/04/04 07:07:59;;;;;;;5.88;5.47;;;5.20;99.90;;;;;;5041235;28;20203;-80
2022/04/04 07:10:27;;;;;;;7.95;6.53;;;5.20;99.90;;;;;;5045140;28;20666;-80
2022/04/04 07:12:54;;;;;;;6.43;5.93;;;5.30;99.90;;;;;;5043210;28;20246;-79
2022/04/04 07:15:21;;;;;;;6.75;6.15;;;5.30;99.90;;;;;;5042972;28;20230;-80
2022/04/04 07:17:48;;;;;;;6.30;5.85;;;5.30;99.90;;;;;;5038460;28;20258;-79
2022/04/04 07:20:15;;;;;;;5.70;5.30;;;5.30;99.90;;;;;;5042627;28;20288;-81
2022/04/04 07:22:44;;;;;;;5.78;5.38;;;5.40;99.90;;;;;;5045053;28;20206;-79
2022/04/04 07:25:14;;;;;;;5.57;5.18;;;5.50;99.90;;;;;;5039477;28;20222;-79
2022/04/04 07:27:42;;;;;;;7.28;6.68;;;5.50;99.90;;;;;;5038615;28;20195;-80
2022/04/04 07:30:11;;;;;;;6.63;6.03;;;5.60;99.90;;;;;;5038889;28;20222;-79
2022/04/04 07:32:39;;;;;;;5.95;5.55;;;5.60;99.90;;;;;;5038397;28;20768;-81
2022/04/04 07:35:10;;;;;;;6.45;5.95;;;5.60;99.90;;;;;;5034735;28;20241;-79
2022/04/04 07:37:37;;;;;;;6.30;5.90;;;5.60;99.90;;;;;;5039449;28;20192;-79
2022/04/04 07:40:07;;;;;;;6.53;6.03;;;5.70;99.90;;;;;;5039779;28;20735;-79
2022/04/04 07:42:34;;;;;;;6.68;6.18;;;5.80;99.90;;;;;;5041938;28;20198;-79
2022/04/04 07:45:01;;;;;;;7.20;6.50;;;5.90;99.90;;;;;;5041729;28;20241;-80
2022/04/04 07:47:29;;;;;;;7.38;6.78;;;5.90;99.90;;;;;;5043560;28;20273;-79
2022/04/04 07:49:56;;;;;;;6.88;6.38;;;6.00;99.90;;;;;;5037277;28;20195;-81
2022/04/04 07:52:23;;;;;;;6.45;5.95;;;6.30;99.90;;;;;;5039775;28;20611;-81
2022/04/04 07:54:50;;;;;;;6.53;6.03;;;6.60;99.90;;;;;;5040342;28;20207;-80
2022/04/04 07:57:18;;;;;;;6.85;6.35;;;6.70;99.90;;;;;;5045206;28;20262;-81
2022/04/04 07:59:45;;;;;;;6.88;6.38;;;6.70;99.90;;;;;;5046518;28;20271;-81
2022/04/04 08:02:13;;;;;;;6.70;6.10;;;6.90;99.90;;;;;;5041237;28;20215;-80
2022/04/04 08:04:40;;;;;;;8.88;7.38;;;6.90;99.90;;;;;;5045711;28;20692;-80
2022/04/04 08:07:07;;;;;;;7.40;6.85;;;7.20;99.90;;;;;;5044958;28;20219;-80
2022/04/04 08:09:34;;;;;;;7.28;6.65;;;7.70;99.90;;;;;;5048491;28;20566;-80
2022/04/04 08:12:01;;;;;;;7.45;6.85;;;8.00;99.90;;;;;;5045342;28;20238;-81
2022/04/04 08:14:29;;;;;;;6.80;6.20;;;8.00;99.90;;;;;;5036829;28;20222;-80
2022/04/04 08:16:56;;;;;;;7.03;6.43;;;8.00;99.90;;;;;;5044751;28;20274;-79
2022/04/04 08:19:23;;;;;;;6.70;6.05;;;7.80;99.90;;;;;;5043082;28;20265;-79
2022/04/04 08:21:50;;;;;;;9.15;6.13;;;7.60;99.90;;;;;;5043248;28;20712;-80
2022/04/04 08:24:20;;;;;;;7.20;6.60;;;7.70;99.90;;;;;;5038607;28;20203;-79
2022/04/04 08:26:47;;;;;;;6.47;5.75;;;7.70;99.90;;;;;;5060435;22;20262;-74
2022/04/04 08:29:14;;;;;;;7.25;6.65;;;7.80;99.90;;;;;;5016906;28;20227;-75
2022/04/04 08:31:42;;;;;;;6.75;6.20;;;8.10;99.90;;;;;;5025053;28;20258;-76
2022/04/04 08:34:10;;;;;;;6.75;6.18;;;8.00;99.90;;;;;;5027149;28;20658;-75
2022/04/04 08:36:37;;;;;;;6.05;5.60;;;8.00;99.90;;;;;;5011238;28;20220;-75
2022/04/04 08:39:04;;;;;;;6.38;5.88;;;8.70;99.90;;;;;;5004395;28;20208;-75
2022/04/04 08:41:33;;;;;;;7.30;6.60;;;9.10;99.90;;;;;;5005592;28;20231;-75
2022/04/04 08:44:03;;;;;;;6.07;5.47;;;9.40;99.90;;;;;;5011210;28;20192;-75
2022/04/04 08:46:33;;;;;;;6.50;5.93;;;9.70;99.90;;;;;;5005839;28;20224;-73
2022/04/04 08:49:04;;;;;;;6.28;5.78;;;10.20;99.90;;;;;;5005874;28;20265;-73
2022/04/04 08:51:31;;;;;;;6.78;6.28;;;10.40;99.90;;;;;;5005342;28;20643;-73
2022/04/04 08:53:58;;;;;;;6.63;6.03;;;10.80;99.90;;;;;;5006598;28;20207;-73
2022/04/04 08:56:26;;;;;;;6.20;5.70;;;11.10;99.90;;;;;;5001824;28;20220;-73
2022/04/04 08:58:55;;;;;;;6.05;5.50;;;11.10;99.90;;;;;;5002685;28;20196;-73
2022/04/04 09:01:24;;;;;;;5.82;5.20;;;11.10;99.90;;;;;;4994680;28;20220;-74
2022/04/04 09:03:54;;;;;;;6.13;5.63;;;11.00;99.90;;;;;;4979886;28;20292;-74
2022/04/04 09:06:23;;;;;;;6.32;5.82;;;10.60;99.90;;;;;;4987434;28;20228;-73
2022/04/04 09:08:51;;;;;;;5.90;5.18;;;10.70;99.90;;;;;;4986182;28;20198;-74
2022/04/04 09:11:18;;;;;;;6.30;5.78;;;11.10;99.90;;;;;;4987173;28;20220;-74
2022/04/04 09:13:45;;;;;;;7.75;5.82;;;11.50;99.90;;;;;;4987976;28;20201;-75
2022/04/04 09:16:12;;;;;;;5.18;4.68;;;11.80;99.90;;;;;;4991875;28;20780;-77
2022/04/04 09:18:45;;;;;;;5.82;5.32;;;12.30;99.90;;;;;;4990171;28;20197;-75
2022/04/04 09:21:14;;;;;;;5.38;4.88;;;12.80;99.90;;;;;;4990771;28;20282;-77
2022/04/04 09:23:56;;;;;;;5.22;4.82;;;12.80;99.90;;;;;;4999883;28;20204;-76
2022/04/04 09:26:30;;;;;;;5.32;4.90;;;12.40;99.90;;;;;;5006039;28;20239;-74
2022/04/04 09:28:57;;;;;;;4.60;4.30;;;12.30;99.90;;;;;;5007478;28;20509;-75
2022/04/04 09:31:24;;;;;;;5.65;5.15;;;12.70;99.90;;;;;;5003127;28;20780;-75
2022/04/04 09:33:51;;;;;;;5.45;4.97;;;12.90;99.90;;;;;;5006664;28;20569;-75
2022/04/04 09:36:19;;;;;;;5.75;5.18;;;12.80;99.90;;;;;;5002656;28;20647;-77
2022/04/04 09:39:00;;;;;;;5.90;4.63;;;13.10;99.90;;;;;;5006837;28;20200;-77
2022/04/04 09:41:28;;;;;;;5.97;5.47;;;13.00;99.90;;;;;;5008087;28;20220;-78
2022/04/04 09:43:56;;;;;;;4.90;4.35;;;13.10;99.90;;;;;;5005591;28;20287;-74
2022/04/04 09:46:23;;;;;;;5.85;5.25;;;13.20;99.90;;;;;;5000604;28;20234;-78
2022/04/04 09:49:02;;;;;;;4.75;4.35;;;13.50;99.90;;;;;;5005727;28;20615;-74
2022/04/04 09:51:37;;;;;;;5.32;4.90;;;13.80;99.90;;;;;;5001933;28;20299;-72
2022/04/04 09:54:07;;;;;;;4.80;4.40;;;13.70;99.90;;;;;;5006107;28;20198;-74
2022/04/04 09:56:34;;;;;;;5.00;4.38;;;14.00;99.90;;;;;;5007072;28;20230;-75
2022/04/04 09:59:02;;;;;;;5.72;4.75;;;14.50;99.90;;;;;;5009215;28;20196;-76
2022/04/04 10:01:32;;;;;;;4.95;4.28;;;14.70;99.90;;;;;;5001447;28;22030;-76
2022/04/04 10:04:00;;;;;;;5.05;4.55;;;14.70;99.90;;;;;;5007246;28;20203;-76
2022/04/04 10:06:29;;;;;;;4.85;4.47;;;14.30;99.90;;;;;;5004197;28;20887;-74
2022/04/04 10:08:58;;;;;;;5.13;4.72;;;13.90;99.90;;;;;;5008951;28;20192;-74
2022/04/04 10:11:30;;;;;;;4.57;4.00;;;13.40;99.90;;;;;;5003382;28;20274;-77
2022/04/04 10:13:58;;;;;;;5.65;5.15;;;13.00;99.90;;;;;;5006043;28;20207;-76
2022/04/04 10:16:25;;;;;;;4.55;4.25;;;12.70;99.90;;;;;;5014026;28;20234;-76
2022/04/04 10:18:55;;;;;;;5.18;4.78;;;12.70;99.90;;;;;;5009932;28;20212;-76
2022/04/04 10:21:23;;;;;;;6.22;5.63;;;12.50;99.90;;;;;;5008932;28;20223;-75
2022/04/04 10:23:53;;;;;;;6.20;5.20;;;12.30;99.90;;;;;;5005056;28;20290;-75
2022/04/04 10:26:22;;;;;;;4.88;4.47;;;12.10;99.90;;;;;;5000733;28;20282;-74
2022/04/04 10:28:50;;;;;;;4.97;4.50;;;11.90;99.90;;;;;;5001307;28;20250;-75
2022/04/04 10:31:19;;;;;;;4.80;4.40;;;11.60;99.90;;;;;;5004960;28;20227;-74
2022/04/04 10:33:47;;;;;;;5.20;4.68;;;11.60;99.90;;;;;;5001539;28;20200;-75
2022/04/04 10:36:18;;;;;;;7.97;5.13;;;11.70;99.90;;;;;;5004795;28;20227;-76
2022/04/04 10:38:50;;;;;;;5.88;5.40;;;11.50;99.90;;;;;;5008473;28;20205;-76
2022/04/04 10:41:19;;;;;;;5.03;4.53;;;11.30;99.90;;;;;;4998564;28;20311;-79
2022/04/04 10:43:47;;;;;;;5.30;4.85;;;11.10;99.90;;;;;;4997967;28;20280;-76
2022/04/04 10:46:17;;;;;;;4.63;4.32;;;11.20;99.90;;;;;;5001798;28;20224;-74
2022/04/04 10:48:49;;;;;;;4.20;3.90;;;11.30;99.90;;;;;;5002762;28;20299;-78
2022/04/04 10:51:18;;;;;;;5.25;4.07;;;11.40;99.90;;;;;;5002360;28;20220;-76
2022/04/04 10:53:49;;;;;;;6.05;4.40;;;11.40;99.90;;;;;;5000933;28;20704;-73
2022/04/04 10:56:23;;;;;;;4.13;3.70;;;11.30;99.90;;;;;;5003902;28;20227;-73
2022/04/04 10:58:53;;;;;;;3.88;3.47;;;11.20;99.90;;;;;;5003409;28;20203;-77
2022/04/04 11:01:24;;;;;;;4.47;4.07;;;11.20;99.90;;;;;;5000860;28;20633;-76
2022/04/04 11:03:59;;;;;;;4.63;4.22;;;11.30;99.90;;;;;;5001721;28;20263;-77
2022/04/04 11:09:32;;;;;;;4.35;3.95;;;11.50;99.90;;;;;;5004648;28;20629;-74
2022/04/04 11:12:15;;;;;;;4.57;4.18;;;11.40;99.90;;;;;;5008302;28;20243;-73
2022/04/04 11:14:47;;;;;;;5.45;3.70;;;11.30;99.90;;;;;;5004937;28;20201;-73
2022/04/04 11:17:38;;;;;;;4.00;3.70;;;11.30;99.90;;;;;;5007471;28;20286;-74
2022/04/04 11:20:14;;;;;;;4.50;4.10;;;11.70;99.90;;;;;;5005469;28;20207;-73
2022/04/04 11:22:45;;;;;;;3.90;3.60;;;12.20;99.90;;;;;;5008664;28;20734;-74
2022/04/04 11:25:17;;;;;;;4.00;3.60;;;12.80;99.90;;;;;;5005888;28;20204;-76
2022/04/04 11:27:48;;;;;;;3.70;3.40;;;12.80;99.90;;;;;;5005463;28;20231;-74
2022/04/04 11:30:17;;;;;;;3.92;3.63;;;12.90;99.90;;;;;;5004208;28;20205;-72
2022/04/04 11:32:47;;;;;;;3.92;3.60;;;12.50;99.90;;;;;;5008807;28;20224;-73
2022/04/04 11:35:18;;;;;;;3.42;3.13;;;12.10;99.90;;;;;;5002747;28;20192;-73
2022/04/04 11:37:48;;;;;;;4.07;3.78;;;11.80;99.90;;;;;;5008201;28;20613;-73
2022/04/04 11:40:18;;;;;;;3.90;3.50;;;11.60;99.90;;;;;;5002880;28;20663;-75
2022/04/04 11:42:50;;;;;;;3.47;2.70;;;11.60;99.90;;;;;;5003106;28;20230;-77
2022/04/04 11:45:18;;;;;;;4.05;3.65;;;11.40;99.90;;;;;;4997385;28;20215;-71
2022/04/04 11:47:55;;;;;;;4.43;3.53;;;11.60;99.90;;;;;;5005725;28;20232;-73
2022/04/04 11:50:26;;;;;;;4.28;3.78;;;11.80;99.90;;;;;;5009533;28;20208;-75
2022/04/04 11:52:55;;;;;;;3.95;3.65;;;12.30;99.90;;;;;;5011685;28;20227;-72
2022/04/04 11:55:25;;;;;;;4.07;3.75;;;12.50;99.90;;;;;;5006444;28;20460;-76
2022/04/04 11:57:57;;;;;;;4.07;3.78;;;12.50;99.90;;;;;;5008586;28;20297;-77
2022/04/04 12:00:26;;;;;;;3.95;3.65;;;12.40;99.90;;;;;;5006325;28;20397;-74
2022/04/04 12:02:55;;;;;;;3.95;3.65;;;12.10;99.90;;;;;;5006205;28;20741;-74
2022/04/04 12:05:23;;;;;;;3.80;3.50;;;12.00;99.90;;;;;;5001295;28;20790;-75
2022/04/04 12:07:51;;;;;;;4.82;3.80;;;12.10;99.90;;;;;;5008751;28;20248;-75
2022/04/04 12:10:31;;;;;;;3.70;3.40;;;12.10;99.90;;;;;;5003634;28;20277;-74
2022/04/04 12:13:04;;;;;;;3.53;3.22;;;11.70;99.90;;;;;;5004054;28;20219;-75
2022/04/04 12:15:33;;;;;;;4.05;3.65;;;11.50;99.90;;;;;;5006631;28;20210;-74
2022/04/04 12:18:04;;;;;;;3.58;3.33;;;11.40;99.90;;;;;;5005614;28;20259;-75
2022/04/04 12:20:42;;;;;;;3.53;3.28;;;11.40;99.90;;;;;;5004760;28;20204;-75
2022/04/04 12:25:57;;;;;;;4.63;3.35;;;11.40;99.90;;;;;;5008995;28;20508;-73
2022/04/04 12:28:26;;;;;;;6.43;3.17;;;11.20;99.90;;;;;;5004294;28;20227;-73
2022/04/04 12:30:54;;;;;;;4.05;3.67;;;11.20;99.90;;;;;;5004063;28;20196;-74
2022/04/04 12:33:30;;;;;;;4.18;3.75;;;11.20;99.90;;;;;;5006332;28;20314;-73
2022/04/04 12:35:58;;;;;;;3.45;3.17;;;11.10;99.90;;;;;;5004855;28;20233;-75
2022/04/04 12:38:28;;;;;;;3.50;3.20;;;11.10;99.90;;;;;;5008793;28;20745;-72
2022/04/04 12:41:13;;;;;;;3.60;3.30;;;11.00;99.90;;;;;;5007941;28;20196;-75
2022/04/04 12:43:42;;;;;;;3.85;3.55;;;11.00;99.90;;;;;;5003257;28;20223;-74
2022/04/04 12:46:25;;;;;;;3.35;3.10;;;11.00;99.90;;;;;;5004802;28;20287;-73
2022/04/04 12:48:53;;;;;;;3.65;3.35;;;11.10;99.90;;;;;;5011332;28;20228;-74
2022/04/04 12:51:29;;;;;;;3.75;3.45;;;11.60;99.90;;;;;;5007995;28;20203;-75
2022/04/04 12:53:58;;;;;;;3.50;3.20;;;11.70;99.90;;;;;;5005289;28;20272;-76
2022/04/04 12:56:27;;;;;;;4.13;3.80;;;12.10;99.90;;;;;;5007677;28;20228;-72
2022/04/04 12:59:07;;;;;;;3.65;3.40;;;12.30;99.90;;;;;;5008895;28;20652;-77
2022/04/04 13:01:35;;;;;;;2.90;2.70;;;12.10;99.90;;;;;;5006183;28;20204;-74
2022/04/04 13:04:20;;;;;;;3.97;3.58;;;11.90;99.90;;;;;;5007931;28;20191;-75
2022/04/04 13:06:47;;;;;;;5.80;3.38;;;11.70;99.90;;;;;;5004392;28;20235;-73
2022/04/04 13:09:23;;;;;;;3.67;3.38;;;11.90;99.90;;;;;;5003582;28;20211;-74
2022/04/04 13:11:52;;;;;;;6.05;3.28;;;11.80;99.90;;;;;;5003763;28;21496;-74